sensor_id;sensor_type;location;lat;lon;timestamp;P1;durP1;ratioP1;P2;durP2;ratioP2
57846;SDS011;43675;50.030;21.952;2023-05-10T00:01:03;19.60;;;17.90;;
57846;SDS011;43675;50.030;21.952;2023-05-10T00:03:29;19.40;;;17.50;;
57846;SDS011;43675;50.030;21.952;2023-05-10T00:05:56;19.40;;;17.60;;
57846;SDS011;43675;50.030;21.952;2023-05-10T00:08:22;19.50;;;17.50;;
57846;SDS011;43675;50.030;21.952;2023-05-10T00:10:49;19.30;;;17.30;;
57846;SDS011;43675;50.030;21.952;2023-05-10T00:13:16;19.10;;;17.20;;
57846;SDS011;43675;50.030;21.952;2023-05-10T00:15:43;18.50;;;17.00;;
57846;SDS011;43675;50.030;21.952;2023-05-10T00:18:09;21.00;;;17.70;;
57846;SDS011;43675;50.030;21.952;2023-05-10T00:20:36;18.70;;;16.80;;
57846;SDS011;43675;50.030;21.952;2023-05-10T00:23:02;18.90;;;17.20;;
57846;SDS011;43675;50.030;21.952;2023-05-10T00:25:29;19.90;;;18.10;;
57846;SDS011;43675;50.030;21.952;2023-05-10T00:27:56;20.10;;;18.20;;
57846;SDS011;43675;50.030;21.952;2023-05-10T00:30:22;20.70;;;18.80;;
57846;SDS011;43675;50.030;21.952;2023-05-10T00:32:49;20.20;;;18.30;;
57846;SDS011;43675;50.030;21.952;2023-05-10T00:35:16;21.50;;;19.20;;
57846;SDS011;43675;50.030;21.952;2023-05-10T00:37:42;23.50;;;21.00;;
57846;SDS011;43675;50.030;21.952;2023-05-10T00:40:09;25.70;;;22.20;;
57846;SDS011;43675;50.030;21.952;2023-05-10T00:42:36;23.50;;;21.00;;
57846;SDS011;43675;50.030;21.952;2023-05-10T00:45:03;22.10;;;20.00;;
57846;SDS011;43675;50.030;21.952;2023-05-10T00:47:31;24.00;;;21.50;;
57846;SDS011;43675;50.030;21.952;2023-05-10T00:49:58;25.40;;;21.40;;
57846;SDS011;43675;50.030;21.952;2023-05-10T00:52:26;26.50;;;23.10;;
57846;SDS011;43675;50.030;21.952;2023-05-10T00:54:54;26.00;;;23.30;;
57846;SDS011;43675;50.030;21.952;2023-05-10T00:57:21;30.00;;;24.30;;
57846;SDS011;43675;50.030;21.952;2023-05-10T00:59:48;29.80;;;24.00;;
57846;SDS011;43675;50.030;21.952;2023-05-10T01:02:15;26.30;;;23.50;;
57846;SDS011;43675;50.030;21.952;2023-05-10T01:04:42;27.10;;;24.20;;
57846;SDS011;43675;50.030;21.952;2023-05-10T01:07:09;31.00;;;25.20;;
57846;SDS011;43675;50.030;21.952;2023-05-10T01:09:36;28.90;;;24.20;;
57846;SDS011;43675;50.030;21.952;2023-05-10T01:12:03;27.20;;;23.20;;
57846;SDS011;43675;50.030;21.952;2023-05-10T01:14:31;26.90;;;23.60;;
57846;SDS011;43675;50.030;21.952;2023-05-10T01:16:57;27.10;;;24.30;;
57846;SDS011;43675;50.030;21.952;2023-05-10T01:19:25;26.80;;;23.80;;
57846;SDS011;43675;50.030;21.952;2023-05-10T01:24:54;31.50;;;25.00;;
57846;SDS011;43675;50.030;21.952;2023-05-10T01:38:32;31.20;;;25.80;;
57846;SDS011;43675;50.030;21.952;2023-05-10T01:41:22;31.40;;;26.20;;
57846;SDS011;43675;50.030;21.952;2023-05-10T01:46:58;26.70;;;23.20;;
57846;SDS011;43675;50.030;21.952;2023-05-10T01:49:32;24.60;;;22.10;;
57846;SDS011;43675;50.030;21.952;2023-05-10T01:52:07;29.00;;;24.10;;
57846;SDS011;43675;50.030;21.952;2023-05-10T01:54:38;28.90;;;25.60;;
57846;SDS011;43675;50.030;21.952;2023-05-10T01:57:27;29.70;;;25.50;;
57846;SDS011;43675;50.030;21.952;2023-05-10T02:00:00;28.60;;;25.60;;
57846;SDS011;43675;50.030;21.952;2023-05-10T02:02:28;31.70;;;26.50;;
57846;SDS011;43675;50.030;21.952;2023-05-10T02:04:59;30.00;;;25.70;;
57846;SDS011;43675;50.030;21.952;2023-05-10T02:07:26;28.40;;;25.50;;
57846;SDS011;43675;50.030;21.952;2023-05-10T02:09:54;32.70;;;26.00;;
57846;SDS011;43675;50.030;21.952;2023-05-10T02:12:22;30.30;;;27.00;;
57846;SDS011;43675;50.030;21.952;2023-05-10T02:14:50;33.30;;;26.30;;
57846;SDS011;43675;50.030;21.952;2023-05-10T02:17:18;29.80;;;26.50;;
57846;SDS011;43675;50.030;21.952;2023-05-10T02:19:46;34.90;;;25.10;;
57846;SDS011;43675;50.030;21.952;2023-05-10T02:22:13;28.70;;;25.40;;
57846;SDS011;43675;50.030;21.952;2023-05-10T02:24:42;33.50;;;26.00;;
57846;SDS011;43675;50.030;21.952;2023-05-10T02:27:11;29.30;;;26.10;;
57846;SDS011;43675;50.030;21.952;2023-05-10T02:29:39;31.40;;;26.40;;
57846;SDS011;43675;50.030;21.952;2023-05-10T02:32:07;33.00;;;26.60;;
57846;SDS011;43675;50.030;21.952;2023-05-10T02:34:36;28.20;;;25.30;;
57846;SDS011;43675;50.030;21.952;2023-05-10T02:37:03;28.20;;;25.30;;
57846;SDS011;43675;50.030;21.952;2023-05-10T02:39:31;29.70;;;25.40;;
57846;SDS011;43675;50.030;21.952;2023-05-10T02:41:58;29.70;;;24.90;;
57846;SDS011;43675;50.030;21.952;2023-05-10T02:44:27;29.70;;;26.00;;
57846;SDS011;43675;50.030;21.952;2023-05-10T02:46:55;29.00;;;25.90;;
57846;SDS011;43675;50.030;21.952;2023-05-10T02:49:22;28.20;;;25.10;;
57846;SDS011;43675;50.030;21.952;2023-05-10T02:51:50;28.50;;;25.60;;
57846;SDS011;43675;50.030;21.952;2023-05-10T02:54:24;29.20;;;25.20;;
57846;SDS011;43675;50.030;21.952;2023-05-10T02:56:56;29.10;;;25.70;;
57846;SDS011;43675;50.030;21.952;2023-05-10T02:59:24;29.00;;;24.90;;
57846;SDS011;43675;50.030;21.952;2023-05-10T03:01:51;34.00;;;25.70;;
57846;SDS011;43675;50.030;21.952;2023-05-10T03:04:18;30.90;;;27.50;;
57846;SDS011;43675;50.030;21.952;2023-05-10T03:06:44;30.60;;;27.20;;
57846;SDS011;43675;50.030;21.952;2023-05-10T03:09:11;30.90;;;27.00;;
57846;SDS011;43675;50.030;21.952;2023-05-10T03:17:01;32.50;;;27.10;;
57846;SDS011;43675;50.030;21.952;2023-05-10T03:19:40;30.80;;;27.10;;
57846;SDS011;43675;50.030;21.952;2023-05-10T03:22:14;30.00;;;26.60;;
57846;SDS011;43675;50.030;21.952;2023-05-10T03:24:47;31.40;;;25.90;;
57846;SDS011;43675;50.030;21.952;2023-05-10T03:27:15;30.10;;;26.00;;
57846;SDS011;43675;50.030;21.952;2023-05-10T03:29:43;30.60;;;25.90;;
57846;SDS011;43675;50.030;21.952;2023-05-10T03:32:11;28.60;;;25.50;;
57846;SDS011;43675;50.030;21.952;2023-05-10T03:34:41;29.50;;;25.80;;
57846;SDS011;43675;50.030;21.952;2023-05-10T03:37:08;28.80;;;25.20;;
57846;SDS011;43675;50.030;21.952;2023-05-10T03:39:34;28.70;;;25.40;;
57846;SDS011;43675;50.030;21.952;2023-05-10T03:42:02;27.10;;;24.20;;
57846;SDS011;43675;50.030;21.952;2023-05-10T03:44:29;28.40;;;24.20;;
57846;SDS011;43675;50.030;21.952;2023-05-10T03:46:55;30.80;;;24.80;;
57846;SDS011;43675;50.030;21.952;2023-05-10T03:49:22;29.10;;;24.00;;
57846;SDS011;43675;50.030;21.952;2023-05-10T03:51:49;26.70;;;23.80;;
57846;SDS011;43675;50.030;21.952;2023-05-10T03:54:15;25.70;;;22.90;;
57846;SDS011;43675;50.030;21.952;2023-05-10T03:56:42;26.10;;;23.50;;
57846;SDS011;43675;50.030;21.952;2023-05-10T03:59:09;27.80;;;23.70;;
57846;SDS011;43675;50.030;21.952;2023-05-10T04:01:35;28.40;;;24.10;;
57846;SDS011;43675;50.030;21.952;2023-05-10T04:04:02;26.00;;;23.20;;
57846;SDS011;43675;50.030;21.952;2023-05-10T04:06:28;34.70;;;23.80;;
57846;SDS011;43675;50.030;21.952;2023-05-10T04:08:55;25.90;;;23.20;;
57846;SDS011;43675;50.030;21.952;2023-05-10T04:11:21;26.10;;;23.60;;
57846;SDS011;43675;50.030;21.952;2023-05-10T04:13:48;25.80;;;23.30;;
57846;SDS011;43675;50.030;21.952;2023-05-10T04:16:14;27.50;;;23.90;;
57846;SDS011;43675;50.030;21.952;2023-05-10T04:18:41;26.50;;;23.90;;
57846;SDS011;43675;50.030;21.952;2023-05-10T04:21:11;25.60;;;22.90;;
57846;SDS011;43675;50.030;21.952;2023-05-10T04:23:38;26.20;;;23.00;;
57846;SDS011;43675;50.030;21.952;2023-05-10T04:26:05;26.90;;;22.30;;
57846;SDS011;43675;50.030;21.952;2023-05-10T04:28:31;29.40;;;23.00;;
57846;SDS011;43675;50.030;21.952;2023-05-10T04:31:07;28.30;;;22.90;;
57846;SDS011;43675;50.030;21.952;2023-05-10T04:33:36;25.30;;;22.70;;
57846;SDS011;43675;50.030;21.952;2023-05-10T04:36:03;24.70;;;22.10;;
57846;SDS011;43675;50.030;21.952;2023-05-10T04:38:30;26.40;;;23.00;;
57846;SDS011;43675;50.030;21.952;2023-05-10T04:41:06;25.90;;;22.30;;
57846;SDS011;43675;50.030;21.952;2023-05-10T04:43:34;25.60;;;23.00;;
57846;SDS011;43675;50.030;21.952;2023-05-10T04:46:01;24.90;;;22.20;;
57846;SDS011;43675;50.030;21.952;2023-05-10T04:48:28;24.10;;;21.30;;
57846;SDS011;43675;50.030;21.952;2023-05-10T04:50:55;24.80;;;22.20;;
57846;SDS011;43675;50.030;21.952;2023-05-10T04:53:22;25.10;;;22.50;;
57846;SDS011;43675;50.030;21.952;2023-05-10T04:55:49;27.20;;;22.20;;
57846;SDS011;43675;50.030;21.952;2023-05-10T04:58:15;23.90;;;21.50;;
57846;SDS011;43675;50.030;21.952;2023-05-10T05:00:42;23.60;;;21.20;;
57846;SDS011;43675;50.030;21.952;2023-05-10T05:03:08;23.00;;;20.60;;
57846;SDS011;43675;50.030;21.952;2023-05-10T05:05:35;25.50;;;21.30;;
57846;SDS011;43675;50.030;21.952;2023-05-10T05:08:01;23.90;;;20.80;;
57846;SDS011;43675;50.030;21.952;2023-05-10T05:10:28;27.00;;;21.20;;
57846;SDS011;43675;50.030;21.952;2023-05-10T05:12:55;24.60;;;21.90;;
57846;SDS011;43675;50.030;21.952;2023-05-10T05:15:21;24.50;;;21.90;;
57846;SDS011;43675;50.030;21.952;2023-05-10T05:17:48;22.90;;;20.60;;
57846;SDS011;43675;50.030;21.952;2023-05-10T05:20:14;23.00;;;20.60;;
57846;SDS011;43675;50.030;21.952;2023-05-10T05:22:41;23.20;;;20.90;;
57846;SDS011;43675;50.030;21.952;2023-05-10T05:25:08;23.40;;;20.90;;
57846;SDS011;43675;50.030;21.952;2023-05-10T05:27:35;23.80;;;21.60;;
57846;SDS011;43675;50.030;21.952;2023-05-10T05:30:01;24.10;;;21.60;;
57846;SDS011;43675;50.030;21.952;2023-05-10T05:32:28;23.60;;;21.40;;
57846;SDS011;43675;50.030;21.952;2023-05-10T05:34:54;23.50;;;21.20;;
57846;SDS011;43675;50.030;21.952;2023-05-10T05:37:21;22.00;;;20.00;;
57846;SDS011;43675;50.030;21.952;2023-05-10T05:39:47;23.30;;;21.00;;
57846;SDS011;43675;50.030;21.952;2023-05-10T05:42:14;23.90;;;21.60;;
57846;SDS011;43675;50.030;21.952;2023-05-10T05:44:41;24.50;;;22.10;;
57846;SDS011;43675;50.030;21.952;2023-05-10T05:47:08;23.00;;;21.00;;
57846;SDS011;43675;50.030;21.952;2023-05-10T05:49:35;23.10;;;20.80;;
57846;SDS011;43675;50.030;21.952;2023-05-10T05:52:01;23.20;;;20.70;;
57846;SDS011;43675;50.030;21.952;2023-05-10T05:54:30;23.90;;;21.50;;
57846;SDS011;43675;50.030;21.952;2023-05-10T05:56:58;23.50;;;20.20;;
57846;SDS011;43675;50.030;21.952;2023-05-10T05:59:25;23.30;;;20.20;;
57846;SDS011;43675;50.030;21.952;2023-05-10T06:01:52;22.10;;;20.00;;
57846;SDS011;43675;50.030;21.952;2023-05-10T06:04:19;21.90;;;19.70;;
57846;SDS011;43675;50.030;21.952;2023-05-10T06:06:45;22.40;;;20.30;;
57846;SDS011;43675;50.030;21.952;2023-05-10T06:09:12;21.10;;;19.30;;
57846;SDS011;43675;50.030;21.952;2023-05-10T06:11:38;21.30;;;19.30;;
57846;SDS011;43675;50.030;21.952;2023-05-10T06:14:05;21.60;;;19.60;;
57846;SDS011;43675;50.030;21.952;2023-05-10T06:16:32;21.50;;;19.60;;
57846;SDS011;43675;50.030;21.952;2023-05-10T06:18:59;20.60;;;18.50;;
57846;SDS011;43675;50.030;21.952;2023-05-10T06:21:25;20.80;;;18.90;;
57846;SDS011;43675;50.030;21.952;2023-05-10T06:23:52;20.60;;;18.60;;
57846;SDS011;43675;50.030;21.952;2023-05-10T06:26:18;21.00;;;19.00;;
57846;SDS011;43675;50.030;21.952;2023-05-10T06:28:45;20.10;;;18.30;;
57846;SDS011;43675;50.030;21.952;2023-05-10T06:31:11;20.60;;;18.60;;
57846;SDS011;43675;50.030;21.952;2023-05-10T06:33:38;22.20;;;20.10;;
57846;SDS011;43675;50.030;21.952;2023-05-10T06:36:04;20.90;;;18.70;;
57846;SDS011;43675;50.030;21.952;2023-05-10T06:38:31;20.60;;;18.70;;
57846;SDS011;43675;50.030;21.952;2023-05-10T06:40:58;20.90;;;18.50;;
57846;SDS011;43675;50.030;21.952;2023-05-10T06:43:25;21.00;;;18.90;;
57846;SDS011;43675;50.030;21.952;2023-05-10T06:45:51;20.40;;;18.30;;
57846;SDS011;43675;50.030;21.952;2023-05-10T06:48:18;19.50;;;17.80;;
57846;SDS011;43675;50.030;21.952;2023-05-10T06:50:44;18.70;;;17.20;;
57846;SDS011;43675;50.030;21.952;2023-05-10T06:53:11;19.00;;;17.50;;
57846;SDS011;43675;50.030;21.952;2023-05-10T06:55:38;19.40;;;17.70;;
57846;SDS011;43675;50.030;21.952;2023-05-10T06:58:05;20.00;;;18.30;;
57846;SDS011;43675;50.030;21.952;2023-05-10T07:00:31;19.00;;;17.40;;
57846;SDS011;43675;50.030;21.952;2023-05-10T07:02:58;19.30;;;17.50;;
57846;SDS011;43675;50.030;21.952;2023-05-10T07:05:25;19.10;;;17.40;;
57846;SDS011;43675;50.030;21.952;2023-05-10T07:07:51;18.80;;;17.10;;
57846;SDS011;43675;50.030;21.952;2023-05-10T07:10:18;19.10;;;17.40;;
57846;SDS011;43675;50.030;21.952;2023-05-10T07:12:45;19.10;;;17.50;;
57846;SDS011;43675;50.030;21.952;2023-05-10T07:15:11;17.80;;;16.40;;
57846;SDS011;43675;50.030;21.952;2023-05-10T07:17:38;17.60;;;16.10;;
57846;SDS011;43675;50.030;21.952;2023-05-10T07:20:04;17.60;;;16.20;;
57846;SDS011;43675;50.030;21.952;2023-05-10T07:22:32;17.40;;;15.90;;
57846;SDS011;43675;50.030;21.952;2023-05-10T07:24:58;17.70;;;16.20;;
57846;SDS011;43675;50.030;21.952;2023-05-10T07:27:25;17.70;;;16.10;;
57846;SDS011;43675;50.030;21.952;2023-05-10T07:29:51;18.10;;;16.50;;
57846;SDS011;43675;50.030;21.952;2023-05-10T07:32:18;18.00;;;16.50;;
57846;SDS011;43675;50.030;21.952;2023-05-10T07:34:45;18.80;;;17.40;;
57846;SDS011;43675;50.030;21.952;2023-05-10T07:37:11;18.70;;;17.20;;
57846;SDS011;43675;50.030;21.952;2023-05-10T07:39:38;19.10;;;17.40;;
57846;SDS011;43675;50.030;21.952;2023-05-10T07:42:05;19.20;;;17.50;;
57846;SDS011;43675;50.030;21.952;2023-05-10T07:44:31;18.70;;;17.10;;
57846;SDS011;43675;50.030;21.952;2023-05-10T07:46:58;19.10;;;17.30;;
57846;SDS011;43675;50.030;21.952;2023-05-10T07:49:25;18.20;;;16.80;;
57846;SDS011;43675;50.030;21.952;2023-05-10T07:51:52;19.80;;;18.00;;
57846;SDS011;43675;50.030;21.952;2023-05-10T07:54:18;19.20;;;17.60;;
57846;SDS011;43675;50.030;21.952;2023-05-10T07:56:45;19.30;;;17.60;;
57846;SDS011;43675;50.030;21.952;2023-05-10T07:59:15;18.90;;;17.30;;
57846;SDS011;43675;50.030;21.952;2023-05-10T08:01:43;19.20;;;17.60;;
57846;SDS011;43675;50.030;21.952;2023-05-10T08:04:09;18.60;;;17.00;;
57846;SDS011;43675;50.030;21.952;2023-05-10T08:06:36;19.30;;;17.70;;
57846;SDS011;43675;50.030;21.952;2023-05-10T08:09:03;19.00;;;17.40;;
57846;SDS011;43675;50.030;21.952;2023-05-10T08:11:30;19.80;;;18.00;;
57846;SDS011;43675;50.030;21.952;2023-05-10T08:13:56;19.40;;;17.70;;
57846;SDS011;43675;50.030;21.952;2023-05-10T08:16:23;19.10;;;17.40;;
57846;SDS011;43675;50.030;21.952;2023-05-10T08:18:50;19.20;;;17.50;;
57846;SDS011;43675;50.030;21.952;2023-05-10T08:21:17;19.00;;;17.30;;
57846;SDS011;43675;50.030;21.952;2023-05-10T08:23:43;18.60;;;16.90;;
57846;SDS011;43675;50.030;21.952;2023-05-10T08:26:10;18.80;;;17.20;;
57846;SDS011;43675;50.030;21.952;2023-05-10T08:28:37;18.70;;;17.20;;
57846;SDS011;43675;50.030;21.952;2023-05-10T08:31:04;19.50;;;17.90;;
57846;SDS011;43675;50.030;21.952;2023-05-10T08:33:31;19.20;;;17.50;;
57846;SDS011;43675;50.030;21.952;2023-05-10T08:35:58;18.80;;;17.20;;
57846;SDS011;43675;50.030;21.952;2023-05-10T08:38:24;20.00;;;17.70;;
57846;SDS011;43675;50.030;21.952;2023-05-10T08:40:51;19.30;;;17.30;;
57846;SDS011;43675;50.030;21.952;2023-05-10T08:43:20;19.60;;;17.50;;
57846;SDS011;43675;50.030;21.952;2023-05-10T08:45:47;19.20;;;17.40;;
57846;SDS011;43675;50.030;21.952;2023-05-10T08:48:16;19.10;;;17.40;;
57846;SDS011;43675;50.030;21.952;2023-05-10T08:50:43;18.70;;;17.10;;
57846;SDS011;43675;50.030;21.952;2023-05-10T08:53:11;19.00;;;17.30;;
57846;SDS011;43675;50.030;21.952;2023-05-10T08:55:41;19.20;;;17.70;;
57846;SDS011;43675;50.030;21.952;2023-05-10T08:58:08;19.50;;;17.90;;
57846;SDS011;43675;50.030;21.952;2023-05-10T09:00:36;19.90;;;18.10;;
57846;SDS011;43675;50.030;21.952;2023-05-10T09:03:04;18.70;;;17.20;;
57846;SDS011;43675;50.030;21.952;2023-05-10T09:05:31;18.00;;;16.50;;
57846;SDS011;43675;50.030;21.952;2023-05-10T09:07:58;18.80;;;17.30;;
57846;SDS011;43675;50.030;21.952;2023-05-10T09:10:25;18.60;;;17.10;;
57846;SDS011;43675;50.030;21.952;2023-05-10T09:12:52;18.50;;;16.90;;
57846;SDS011;43675;50.030;21.952;2023-05-10T09:15:22;17.40;;;16.10;;
57846;SDS011;43675;50.030;21.952;2023-05-10T09:17:49;19.50;;;18.10;;
57846;SDS011;43675;50.030;21.952;2023-05-10T09:20:16;19.80;;;18.40;;
57846;SDS011;43675;50.030;21.952;2023-05-10T09:22:42;20.50;;;19.00;;
57846;SDS011;43675;50.030;21.952;2023-05-10T09:25:10;20.40;;;18.40;;
57846;SDS011;43675;50.030;21.952;2023-05-10T09:27:39;19.40;;;17.80;;
57846;SDS011;43675;50.030;21.952;2023-05-10T09:30:07;18.40;;;16.80;;
57846;SDS011;43675;50.030;21.952;2023-05-10T09:32:39;19.00;;;17.50;;
57846;SDS011;43675;50.030;21.952;2023-05-10T09:35:13;19.20;;;17.40;;
57846;SDS011;43675;50.030;21.952;2023-05-10T09:37:41;19.10;;;17.50;;
57846;SDS011;43675;50.030;21.952;2023-05-10T09:40:14;18.20;;;16.80;;
57846;SDS011;43675;50.030;21.952;2023-05-10T09:42:56;17.90;;;16.60;;
57846;SDS011;43675;50.030;21.952;2023-05-10T09:45:24;18.70;;;17.20;;
57846;SDS011;43675;50.030;21.952;2023-05-10T09:47:52;18.20;;;16.80;;
57846;SDS011;43675;50.030;21.952;2023-05-10T09:50:20;17.80;;;16.40;;
57846;SDS011;43675;50.030;21.952;2023-05-10T09:52:51;18.00;;;16.50;;
57846;SDS011;43675;50.030;21.952;2023-05-10T09:55:20;18.30;;;16.50;;
57846;SDS011;43675;50.030;21.952;2023-05-10T09:57:49;18.50;;;16.80;;
57846;SDS011;43675;50.030;21.952;2023-05-10T10:00:24;18.80;;;17.00;;
57846;SDS011;43675;50.030;21.952;2023-05-10T10:02:54;17.80;;;16.20;;
57846;SDS011;43675;50.030;21.952;2023-05-10T10:05:29;18.40;;;16.70;;
57846;SDS011;43675;50.030;21.952;2023-05-10T10:08:02;17.60;;;16.10;;
57846;SDS011;43675;50.030;21.952;2023-05-10T10:10:32;17.90;;;16.20;;
57846;SDS011;43675;50.030;21.952;2023-05-10T10:13:00;17.00;;;15.60;;
57846;SDS011;43675;50.030;21.952;2023-05-10T10:15:28;17.10;;;15.80;;
57846;SDS011;43675;50.030;21.952;2023-05-10T10:17:54;18.40;;;17.00;;
57846;SDS011;43675;50.030;21.952;2023-05-10T10:20:21;19.60;;;17.80;;
57846;SDS011;43675;50.030;21.952;2023-05-10T10:22:48;19.90;;;18.20;;
57846;SDS011;43675;50.030;21.952;2023-05-10T10:25:16;18.20;;;16.90;;
57846;SDS011;43675;50.030;21.952;2023-05-10T10:33:18;20.20;;;18.20;;
57846;SDS011;43675;50.030;21.952;2023-05-10T10:35:55;19.40;;;17.90;;
57846;SDS011;43675;50.030;21.952;2023-05-10T10:38:25;18.50;;;16.90;;
57846;SDS011;43675;50.030;21.952;2023-05-10T10:41:02;18.40;;;16.70;;
57846;SDS011;43675;50.030;21.952;2023-05-10T10:43:34;18.00;;;16.40;;
57846;SDS011;43675;50.030;21.952;2023-05-10T10:46:10;19.00;;;17.40;;
57846;SDS011;43675;50.030;21.952;2023-05-10T10:48:50;18.50;;;16.80;;
57846;SDS011;43675;50.030;21.952;2023-05-10T10:51:37;19.30;;;17.00;;
57846;SDS011;43675;50.030;21.952;2023-05-10T10:54:11;18.50;;;16.90;;
57846;SDS011;43675;50.030;21.952;2023-05-10T10:56:37;19.00;;;17.10;;
57846;SDS011;43675;50.030;21.952;2023-05-10T10:59:04;18.50;;;16.70;;
57846;SDS011;43675;50.030;21.952;2023-05-10T11:01:33;18.80;;;16.90;;
57846;SDS011;43675;50.030;21.952;2023-05-10T11:06:30;18.20;;;16.60;;
57846;SDS011;43675;50.030;21.952;2023-05-10T11:08:57;17.80;;;16.30;;
57846;SDS011;43675;50.030;21.952;2023-05-10T11:11:24;19.20;;;17.70;;
57846;SDS011;43675;50.030;21.952;2023-05-10T11:13:51;18.30;;;16.70;;
57846;SDS011;43675;50.030;21.952;2023-05-10T11:18:54;18.20;;;16.70;;
57846;SDS011;43675;50.030;21.952;2023-05-10T11:21:24;18.40;;;16.60;;
57846;SDS011;43675;50.030;21.952;2023-05-10T11:23:52;17.50;;;16.10;;
57846;SDS011;43675;50.030;21.952;2023-05-10T11:26:19;18.30;;;16.80;;
57846;SDS011;43675;50.030;21.952;2023-05-10T11:28:49;18.00;;;16.30;;
57846;SDS011;43675;50.030;21.952;2023-05-10T11:31:16;17.70;;;16.00;;
57846;SDS011;43675;50.030;21.952;2023-05-10T11:36:23;17.60;;;16.20;;
57846;SDS011;43675;50.030;21.952;2023-05-10T11:38:51;18.00;;;16.50;;
57846;SDS011;43675;50.030;21.952;2023-05-10T11:41:18;18.20;;;16.70;;
57846;SDS011;43675;50.030;21.952;2023-05-10T11:43:46;19.10;;;17.50;;
57846;SDS011;43675;50.030;21.952;2023-05-10T11:46:13;18.30;;;16.70;;
57846;SDS011;43675;50.030;21.952;2023-05-10T11:48:40;18.30;;;16.70;;
57846;SDS011;43675;50.030;21.952;2023-05-10T11:51:08;17.80;;;16.30;;
57846;SDS011;43675;50.030;21.952;2023-05-10T11:53:36;18.00;;;16.30;;
57846;SDS011;43675;50.030;21.952;2023-05-10T11:56:12;17.60;;;16.20;;
57846;SDS011;43675;50.030;21.952;2023-05-10T11:58:38;17.50;;;15.90;;
57846;SDS011;43675;50.030;21.952;2023-05-10T12:01:06;18.50;;;16.80;;
57846;SDS011;43675;50.030;21.952;2023-05-10T12:03:34;18.70;;;17.10;;
57846;SDS011;43675;50.030;21.952;2023-05-10T12:06:01;18.10;;;16.50;;
57846;SDS011;43675;50.030;21.952;2023-05-10T12:08:29;18.30;;;16.90;;
57846;SDS011;43675;50.030;21.952;2023-05-10T12:11:14;18.30;;;16.70;;
57846;SDS011;43675;50.030;21.952;2023-05-10T12:13:41;17.70;;;16.40;;
57846;SDS011;43675;50.030;21.952;2023-05-10T12:16:13;17.80;;;16.50;;
57846;SDS011;43675;50.030;21.952;2023-05-10T12:18:40;17.20;;;15.90;;
57846;SDS011;43675;50.030;21.952;2023-05-10T12:21:07;18.40;;;16.50;;
57846;SDS011;43675;50.030;21.952;2023-05-10T12:23:33;18.30;;;16.90;;
57846;SDS011;43675;50.030;21.952;2023-05-10T12:26:03;17.70;;;16.40;;
57846;SDS011;43675;50.030;21.952;2023-05-10T12:28:30;18.30;;;16.90;;
57846;SDS011;43675;50.030;21.952;2023-05-10T12:30:57;18.00;;;16.70;;
57846;SDS011;43675;50.030;21.952;2023-05-10T12:33:25;17.80;;;16.50;;
57846;SDS011;43675;50.030;21.952;2023-05-10T12:35:53;18.70;;;17.30;;
57846;SDS011;43675;50.030;21.952;2023-05-10T12:38:24;17.20;;;16.00;;
57846;SDS011;43675;50.030;21.952;2023-05-10T12:41:00;17.00;;;15.80;;
57846;SDS011;43675;50.030;21.952;2023-05-10T12:43:29;20.40;;;17.20;;
57846;SDS011;43675;50.030;21.952;2023-05-10T12:45:56;18.80;;;17.30;;
57846;SDS011;43675;50.030;21.952;2023-05-10T12:48:24;18.10;;;16.80;;
57846;SDS011;43675;50.030;21.952;2023-05-10T12:50:50;19.00;;;17.30;;
57846;SDS011;43675;50.030;21.952;2023-05-10T12:53:17;18.70;;;17.30;;
57846;SDS011;43675;50.030;21.952;2023-05-10T12:55:44;17.70;;;16.40;;
57846;SDS011;43675;50.030;21.952;2023-05-10T12:58:10;18.70;;;17.00;;
57846;SDS011;43675;50.030;21.952;2023-05-10T13:00:37;18.90;;;17.30;;
57846;SDS011;43675;50.030;21.952;2023-05-10T13:03:04;19.00;;;17.30;;
57846;SDS011;43675;50.030;21.952;2023-05-10T13:05:32;18.30;;;17.00;;
57846;SDS011;43675;50.030;21.952;2023-05-10T13:07:59;18.10;;;16.80;;
57846;SDS011;43675;50.030;21.952;2023-05-10T13:10:25;18.50;;;17.10;;
57846;SDS011;43675;50.030;21.952;2023-05-10T13:12:52;18.20;;;16.70;;
57846;SDS011;43675;50.030;21.952;2023-05-10T13:15:18;18.00;;;16.50;;
57846;SDS011;43675;50.030;21.952;2023-05-10T13:17:45;18.10;;;16.60;;
57846;SDS011;43675;50.030;21.952;2023-05-10T13:20:11;18.20;;;16.90;;
57846;SDS011;43675;50.030;21.952;2023-05-10T13:22:38;17.90;;;16.60;;
57846;SDS011;43675;50.030;21.952;2023-05-10T13:25:04;19.00;;;17.20;;
57846;SDS011;43675;50.030;21.952;2023-05-10T13:27:31;19.40;;;17.70;;
57846;SDS011;43675;50.030;21.952;2023-05-10T13:29:58;18.60;;;17.00;;
57846;SDS011;43675;50.030;21.952;2023-05-10T13:32:25;18.50;;;17.10;;
57846;SDS011;43675;50.030;21.952;2023-05-10T13:34:52;17.90;;;16.60;;
57846;SDS011;43675;50.030;21.952;2023-05-10T13:37:18;19.00;;;17.20;;
57846;SDS011;43675;50.030;21.952;2023-05-10T13:39:45;18.10;;;16.60;;
57846;SDS011;43675;50.030;21.952;2023-05-10T13:42:11;18.30;;;16.90;;
57846;SDS011;43675;50.030;21.952;2023-05-10T13:44:38;18.30;;;16.80;;
57846;SDS011;43675;50.030;21.952;2023-05-10T13:47:04;19.00;;;17.40;;
57846;SDS011;43675;50.030;21.952;2023-05-10T13:49:31;19.40;;;17.60;;
57846;SDS011;43675;50.030;21.952;2023-05-10T13:51:58;17.80;;;16.30;;
57846;SDS011;43675;50.030;21.952;2023-05-10T13:54:24;17.70;;;16.30;;
57846;SDS011;43675;50.030;21.952;2023-05-10T13:56:51;18.20;;;16.50;;
57846;SDS011;43675;50.030;21.952;2023-05-10T13:59:17;17.70;;;16.20;;
57846;SDS011;43675;50.030;21.952;2023-05-10T14:01:44;17.80;;;16.20;;
57846;SDS011;43675;50.030;21.952;2023-05-10T14:04:11;18.20;;;16.80;;
57846;SDS011;43675;50.030;21.952;2023-05-10T14:06:38;18.10;;;16.70;;
57846;SDS011;43675;50.030;21.952;2023-05-10T14:09:04;18.50;;;16.80;;
57846;SDS011;43675;50.030;21.952;2023-05-10T14:11:31;17.90;;;16.50;;
57846;SDS011;43675;50.030;21.952;2023-05-10T14:13:58;18.40;;;16.90;;
57846;SDS011;43675;50.030;21.952;2023-05-10T14:16:25;19.90;;;18.30;;
57846;SDS011;43675;50.030;21.952;2023-05-10T14:18:52;17.80;;;16.50;;
57846;SDS011;43675;50.030;21.952;2023-05-10T14:21:18;17.70;;;16.10;;
57846;SDS011;43675;50.030;21.952;2023-05-10T14:23:45;18.50;;;17.00;;
57846;SDS011;43675;50.030;21.952;2023-05-10T14:26:11;16.70;;;15.40;;
57846;SDS011;43675;50.030;21.952;2023-05-10T14:28:38;17.90;;;16.50;;
57846;SDS011;43675;50.030;21.952;2023-05-10T14:31:04;18.90;;;17.10;;
57846;SDS011;43675;50.030;21.952;2023-05-10T14:33:31;18.00;;;16.50;;
57846;SDS011;43675;50.030;21.952;2023-05-10T14:35:57;17.50;;;16.10;;
57846;SDS011;43675;50.030;21.952;2023-05-10T14:38:24;17.00;;;15.60;;
57846;SDS011;43675;50.030;21.952;2023-05-10T14:40:50;17.60;;;16.30;;
57846;SDS011;43675;50.030;21.952;2023-05-10T14:43:17;17.70;;;16.10;;
57846;SDS011;43675;50.030;21.952;2023-05-10T14:45:43;16.90;;;15.60;;
57846;SDS011;43675;50.030;21.952;2023-05-10T14:48:10;17.00;;;15.50;;